Date,TemperatureHighF,TemperatureAvgF,TemperatureLowF,DewpointHighF,DewpointAvgF,DewpointLowF,HumidityHigh,HumidityAvg,HumidityLow,PressureMaxIn,PressureMinIn,WindSpeedMaxMPH,WindSpeedAvgMPH,GustSpeedMaxMPH,PrecipitationSumIn
2013-10-1,85.1,71.9,62.6,69.3,64.3,59.0,94,79,50,0.00,40.00,16,2,17,0.00
2013-10-2,87.3,73.3,64.4,72.0,66.1,62.4,96,81,47,0.00,40.00,19,1,19,0.06
2013-10-3,86.9,73.2,67.5,71.8,67.6,64.0,93,83,60,0.00,40.00,32,1,32,0.19
2013-10-4,90.1,77.6,68.9,72.3,68.5,66.4,94,76,48,0.00,40.00,20,1,21,0.01
2013-10-5,75.7,64.3,50.5,69.6,60.5,47.1,92,87,80,0.00,40.00,18,1,19,0.11
2013-10-6,53.1,48.4,42.3,47.5,43.5,39.4,93,83,66,0.00,40.00,30,4,30,0.05
2013-10-7,73.2,59.5,48.7,51.3,47.8,45.7,93,68,40,0.00,40.00,18,2,19,0.05
2013-10-8,77.7,63.4,49.6,54.0,49.0,45.0,85,62,37,0.00,40.00,17,1,17,0.00
2013-10-9,75.6,62.2,49.8,52.2,48.4,45.5,85,63,38,0.00,40.00,16,1,17,0.00
2013-10-10,79.0,65.3,52.0,59.2,54.1,48.0,91,69,46,0.00,40.00,15,1,19,0.00
2013-10-11,78.6,67.8,56.1,62.1,57.4,53.8,93,71,48,0.00,40.00,19,2,19,0.00
2013-10-12,74.7,65.9,54.7,60.4,50.7,40.6,87,60,35,0.00,40.00,18,2,23,0.00
2013-10-13,72.1,58.2,46.4,43.0,38.1,33.3,78,50,29,0.00,40.00,13,1,13,0.00
2013-10-14,68.7,56.9,43.2,52.9,41.5,33.3,80,58,42,0.00,40.00,15,2,16,0.03
2013-10-15,69.4,60.5,48.6,62.4,52.6,40.6,94,76,51,0.00,40.00,24,4,24,0.27
2013-10-16,56.8,51.0,47.1,43.5,41.6,39.9,80,70,60,0.00,40.00,20,4,20,0.00
2013-10-17,66.9,53.8,45.3,48.9,44.1,41.0,92,72,42,0.00,40.00,26,2,26,0.05
2013-10-18,59.2,47.5,41.4,43.3,39.2,35.4,90,75,46,0.00,40.00,17,3,19,0.02
2013-10-19,58.5,46.7,36.1,41.2,37.5,33.6,92,72,43,0.00,40.00,27,4,27,0.01
2013-10-20,73.2,57.3,43.2,46.2,41.8,37.8,83,59,34,0.00,40.00,29,3,29,0.00
2013-10-21,59.0,47.8,36.7,44.6,35.1,29.8,82,62,44,0.00,40.00,20,4,20,0.00
2013-10-22,55.8,42.4,36.1,46.2,37.7,31.8,89,83,68,0.00,40.00,26,4,26,0.04
2013-10-23,49.6,40.6,34.3,36.7,32.5,27.5,92,75,44,0.00,40.00,19,3,19,0.01
2013-10-24,44.1,38.1,28.6,36.1,27.7,23.5,89,67,49,0.00,40.00,16,4,23,0.00
2013-10-25,56.7,42.1,26.8,33.8,27.7,23.2,92,61,34,0.00,40.00,21,1,21,0.00
2013-10-26,61.9,48.8,37.6,40.1,31.7,27.1,69,53,34,0.00,40.00,24,4,24,0.00
2013-10-27,59.4,45.0,29.5,35.4,30.6,26.1,89,60,37,0.00,40.00,11,1,19,0.00
2013-10-28,70.5,53.2,38.1,39.0,33.8,28.6,71,50,27,0.00,40.00,11,0,11,0.00
2013-10-29,56.1,50.6,43.9,53.2,43.4,33.8,94,77,55,0.00,40.00,11,1,11,0.00
2013-10-30,58.1,55.9,54.9,57.0,54.5,53.2,96,95,94,0.00,40.00,6,0,6,0.02
2013-10-31,64.0,55.3,45.7,62.8,53.8,43.5,96,95,92,0.00,40.00,20,2,20,1.09